Time;durP1;ratioP1;P1;durP2;ratioP2;P2;SDS_P1;SDS_P2;PMS_P1;PMS_P2;Temp;Humidity;BMP_temperature;BMP_pressure;BME280_temperature;BME280_humidity;BME280_pressure;Samples;Min_cycle;Max_cycle;Signal;HPM_P1;HPM_P2
2023/05/16 00:00:36;;;;;;;5.00;3.50;;;;;;;17.68;45.40;99710.77;106013;1256;74423;-79
2023/05/16 00:03:05;;;;;;;4.70;3.80;;;;;;;17.64;45.40;99708.81;105969;1260;62520;-75
2023/05/16 00:05:32;;;;;;;5.00;3.20;;;;;;;17.60;45.52;99711.81;106043;1255;60974;-79
2023/05/16 00:07:58;;;;;;;4.60;3.30;;;;;;;17.56;45.48;99708.80;106192;1255;72715;-77
2023/05/16 00:10:25;;;;;;;7.70;5.80;;;;;;;17.54;45.67;99707.54;105965;1259;69004;-76
2023/05/16 00:12:52;;;;;;;21.10;13.30;;;;;;;17.53;45.74;99712.17;105884;1259;73808;-78
2023/05/16 00:15:19;;;;;;;17.40;12.80;;;;;;;17.50;45.78;99712.56;106068;1259;61754;-78
2023/05/16 00:17:46;;;;;;;34.60;16.70;;;;;;;17.47;45.82;99711.66;106177;1257;62380;-77
2023/05/16 00:20:16;;;;;;;56.90;20.80;;;;;;;17.47;45.88;99716.70;106217;1256;73434;-76
2023/05/16 00:22:43;;;;;;;49.50;16.80;;;;;;;17.44;46.10;99716.92;106480;1254;72794;-78
2023/05/16 00:25:10;;;;;;;45.20;14.50;;;;;;;17.41;46.22;99718.39;106499;1254;74521;-78
2023/05/16 00:27:37;;;;;;;35.10;13.30;;;;;;;17.39;46.28;99713.88;106309;1259;60628;-80
2023/05/16 00:30:04;;;;;;;34.30;15.10;;;;;;;17.38;46.39;99711.66;105965;1254;61560;-76
2023/05/16 00:32:31;;;;;;;19.60;13.30;;;;;;;17.37;46.65;99717.61;106170;1257;75269;-76
2023/05/16 00:34:59;;;;;;;13.70;8.30;;;;;;;17.32;46.65;99710.95;105969;1254;72215;-77
2023/05/16 00:37:26;;;;;;;12.60;8.30;;;;;;;17.31;46.88;99714.13;106108;1258;73547;-80
2023/05/16 00:39:53;;;;;;;18.80;15.20;;;;;;;17.28;47.07;99716.95;106010;1259;60533;-76
2023/05/16 00:42:20;;;;;;;12.70;11.00;;;;;;;17.25;47.05;99716.01;105838;1259;62281;-74
2023/05/16 00:44:47;;;;;;;14.60;10.60;;;;;;;17.21;47.00;99716.92;105868;1261;75673;-78
2023/05/16 00:47:14;;;;;;;15.70;12.10;;;;;;;17.19;47.04;99715.29;106056;1257;70606;-76
2023/05/16 00:49:42;;;;;;;18.00;13.40;;;;;;;17.16;47.01;99712.48;106054;1260;72549;-76
2023/05/16 00:52:10;;;;;;;15.50;11.60;;;;;;;17.12;47.22;99713.66;105910;1258;62101;-77
2023/05/16 00:54:38;;;;;;;16.00;11.10;;;;;;;17.10;47.16;99708.77;105948;1259;62688;-78
2023/05/16 00:57:05;;;;;;;11.40;9.20;;;;;;;17.07;47.26;99711.94;106104;1257;75876;-78
2023/05/16 00:59:32;;;;;;;9.80;8.40;;;;;;;17.04;47.22;99713.94;105946;1262;71323;-75
2023/05/16 01:01:59;;;;;;;9.00;7.90;;;;;;;17.02;47.15;99710.34;105785;1261;73520;-79
2023/05/16 01:04:26;;;;;;;7.40;5.80;;;;;;;17.01;47.28;99711.21;105918;1254;60542;-81
2023/05/16 01:06:55;;;;;;;7.70;4.80;;;;;;;17.00;47.27;99712.80;105781;1259;60465;-78
2023/05/16 01:09:22;;;;;;;5.60;4.10;;;;;;;16.98;47.05;99713.95;105954;1259;75956;-78
2023/05/16 01:12:35;;;;;;;6.20;3.80;;;;;;;16.96;46.76;99709.73;105915;1259;72277;-78
2023/05/16 01:15:12;;;;;;;5.40;3.90;;;;;;;16.94;46.79;99702.52;106474;1254;74843;-78
2023/05/16 01:17:45;;;;;;;5.30;4.00;;;;;;;16.94;46.62;99702.94;106478;1259;62338;-78
2023/05/16 01:20:33;;;;;;;9.10;4.10;;;;;;;16.94;46.46;99699.39;105517;1257;1088982;-77
2023/05/16 01:25:37;;;;;;;5.40;4.20;;;;;;;16.96;46.27;99698.56;103045;1292;600189;-76
2023/05/16 01:28:04;;;;;;;4.90;3.80;;;;;;;16.93;46.28;99693.94;105197;1265;61100;-78
2023/05/16 01:30:36;;;;;;;4.80;4.00;;;;;;;16.93;46.32;99692.24;105277;1265;59642;-76
2023/05/16 01:33:02;;;;;;;6.10;3.70;;;;;;;16.94;46.18;99695.30;105305;1271;73090;-80
2023/05/16 01:35:29;;;;;;;5.90;4.10;;;;;;;16.90;46.31;99698.81;105451;1268;70223;-78
2023/05/16 01:38:03;;;;;;;4.50;3.80;;;;;;;16.84;46.30;99696.52;105148;1273;188672;-76
2023/05/16 01:40:34;;;;;;;5.50;4.20;;;;;;;16.81;46.58;99695.97;105470;1265;61143;-77
2023/05/16 01:43:03;;;;;;;9.10;4.20;;;;;;;16.77;46.63;99694.61;105497;1263;61494;-77
2023/05/16 01:45:33;;;;;;;5.80;4.80;;;;;;;16.73;46.98;99693.95;105342;1270;72621;-73
2023/05/16 01:48:06;;;;;;;4.40;3.60;;;;;;;16.69;47.13;99689.84;105511;1268;69520;-74
2023/05/16 01:50:35;;;;;;;4.90;4.10;;;;;;;16.66;47.40;99697.92;105299;1263;73063;-75
2023/05/16 01:53:10;;;;;;;5.50;4.20;;;;;;;16.61;47.50;99690.21;105555;1261;60694;-76
2023/05/16 01:55:47;;;;;;;9.50;4.60;;;;;;;16.57;47.60;99688.83;105529;1259;62423;-75
2023/05/16 01:58:17;;;;;;;4.60;4.10;;;;;;;16.54;47.66;99687.05;105464;1260;74062;-73
2023/05/16 02:00:43;;;;;;;7.90;4.40;;;;;;;16.50;47.81;99687.47;105504;1259;73532;-75
2023/05/16 02:03:10;;;;;;;4.90;4.10;;;;;;;16.47;48.01;99688.30;105493;1264;75014;-75
2023/05/16 02:05:37;;;;;;;6.00;3.90;;;;;;;16.41;48.28;99685.16;105512;1258;62191;-72
2023/05/16 02:08:07;;;;;;;5.60;4.50;;;;;;;16.36;48.54;99681.66;105308;1261;60133;-74
2023/05/16 02:10:34;;;;;;;6.20;4.50;;;;;;;16.29;48.69;99687.89;105435;1260;72626;-75
2023/05/16 02:13:00;;;;;;;6.10;4.40;;;;;;;16.23;48.64;99679.82;105457;1265;71036;-76
2023/05/16 02:15:27;;;;;;;4.60;3.60;;;;;;;16.19;48.91;99682.66;105430;1259;74993;-74
2023/05/16 02:17:55;;;;;;;6.30;4.00;;;;;;;16.17;48.97;99686.65;105494;1261;60688;-75
2023/05/16 02:20:22;;;;;;;5.90;4.00;;;;;;;16.13;48.85;99685.80;105559;1259;62374;-74
2023/05/16 02:22:49;;;;;;;7.20;4.00;;;;;;;16.07;48.80;99685.22;105411;1264;73198;-74
2023/05/16 02:25:17;;;;;;;6.60;4.40;;;;;;;16.04;49.11;99685.13;105462;1259;71046;-74
2023/05/16 02:27:44;;;;;;;6.00;4.30;;;;;;;16.02;49.15;99683.85;105481;1267;73940;-73
2023/05/16 02:30:11;;;;;;;6.30;4.30;;;;;;;16.00;49.06;99684.80;105510;1267;62610;-75
2023/05/16 02:32:39;;;;;;;6.00;4.10;;;;;;;16.00;49.14;99677.29;105561;1260;62298;-75
2023/05/16 02:35:07;;;;;;;6.50;4.40;;;;;;;16.02;48.91;99682.03;105487;1262;74136;-74
2023/05/16 02:37:34;;;;;;;7.20;4.00;;;;;;;16.02;49.01;99678.33;105362;1264;71111;-76
2023/05/16 02:40:02;;;;;;;4.20;3.80;;;;;;;16.01;49.01;99682.91;105603;1264;72974;-74
2023/05/16 02:42:30;;;;;;;7.10;4.40;;;;;;;16.01;48.98;99684.31;105685;1267;61096;-74
2023/05/16 02:44:57;;;;;;;7.70;4.30;;;;;;;16.00;49.00;99683.41;105471;1265;60852;-74
2023/05/16 02:47:24;;;;;;;6.20;3.80;;;;;;;16.00;48.94;99684.95;105633;1256;74921;-76
2023/05/16 02:49:51;;;;;;;5.90;5.10;;;;;;;15.99;48.81;99684.06;105763;1257;71178;-74
2023/05/16 02:52:18;;;;;;;4.80;4.10;;;;;;;15.97;49.03;99683.48;105748;1257;74804;-77
2023/05/16 02:54:45;;;;;;;5.20;4.40;;;;;;;15.96;48.89;99679.48;105637;1259;61188;-77
2023/05/16 02:57:25;;;;;;;5.00;4.00;;;;;;;15.96;48.82;99677.21;106127;1262;62291;-76
2023/05/16 02:59:52;;;;;;;5.60;4.20;;;;;;;15.97;48.91;99674.52;105995;1256;75498;-75
2023/05/16 03:02:19;;;;;;;7.70;4.00;;;;;;;15.99;48.77;99672.98;105721;1256;71751;-78
2023/05/16 03:04:46;;;;;;;6.50;3.80;;;;;;;15.99;48.80;99675.80;106906;1259;71066;-75
2023/05/16 03:07:13;;;;;;;5.30;4.30;;;;;;;16.00;48.83;99673.55;106624;1256;61301;-77
2023/05/16 03:09:40;;;;;;;6.80;4.70;;;;;;;16.01;48.72;99672.94;106189;1256;61105;-75
2023/05/16 03:12:07;;;;;;;6.20;4.10;;;;;;;16.02;48.66;99675.08;105887;1256;73813;-76
2023/05/16 03:14:34;;;;;;;6.00;4.30;;;;;;;16.03;48.71;99678.66;105899;1262;71381;-75
2023/05/16 03:17:02;;;;;;;9.50;4.30;;;;;;;16.03;48.54;99679.02;105747;1259;74650;-72
2023/05/16 03:19:29;;;;;;;8.80;4.70;;;;;;;16.03;48.59;99673.60;105770;1258;60369;-73
2023/05/16 03:21:56;;;;;;;4.80;4.00;;;;;;;16.05;48.53;99679.52;106100;1258;62830;-75
2023/05/16 03:24:24;;;;;;;5.70;4.50;;;;;;;16.06;48.58;99674.33;106034;1256;72994;-75
2023/05/16 03:26:51;;;;;;;5.80;4.10;;;;;;;16.05;48.71;99672.65;105929;1256;71146;-75
2023/05/16 03:29:19;;;;;;;4.90;4.40;;;;;;;16.04;48.78;99673.66;106214;1259;74738;-79
2023/05/16 03:31:46;;;;;;;8.30;4.40;;;;;;;16.05;48.73;99665.55;106500;1257;59750;-75
2023/05/16 03:34:13;;;;;;;5.70;4.00;;;;;;;16.07;48.81;99664.18;107645;1256;61202;-75
2023/05/16 03:36:40;;;;;;;6.20;3.90;;;;;;;16.09;48.54;99666.63;108561;1253;73760;-75
2023/05/16 03:39:07;;;;;;;6.30;4.40;;;;;;;16.12;48.67;99668.52;108478;1253;71062;-75
2023/05/16 03:41:34;;;;;;;4.80;4.10;;;;;;;16.16;48.63;99669.30;108735;1252;73563;-75
2023/05/16 03:44:01;;;;;;;6.20;4.10;;;;;;;16.19;48.66;99673.02;108753;1253;59711;-75
2023/05/16 03:46:28;;;;;;;5.90;4.10;;;;;;;16.23;48.35;99681.33;109040;1253;61281;-78
2023/05/16 03:48:55;;;;;;;8.70;4.50;;;;;;;16.29;48.34;99683.83;108542;1258;71889;-74
2023/05/16 03:51:24;;;;;;;5.00;3.70;;;;;;;16.33;48.19;99682.66;108264;1253;71197;-73
2023/05/16 03:53:50;;;;;;;6.90;3.80;;;;;;;16.37;48.03;99690.28;108154;1259;73375;-75
2023/05/16 03:56:17;;;;;;;5.80;4.10;;;;;;;16.36;47.99;99699.27;108243;1253;60318;-74
2023/05/16 03:58:44;;;;;;;6.90;4.10;;;;;;;16.34;48.03;99699.43;108189;1253;61143;-76
2023/05/16 04:01:11;;;;;;;8.20;3.80;;;;;;;16.29;47.87;99703.24;108640;1252;75226;-79
2023/05/16 04:03:38;;;;;;;6.20;3.70;;;;;;;16.24;47.99;99700.73;108558;1253;71363;-76
2023/05/16 04:06:06;;;;;;;6.40;4.00;;;;;;;16.20;47.97;99708.71;108371;1254;73659;-76
2023/05/16 04:08:33;;;;;;;5.10;3.90;;;;;;;16.18;48.06;99711.57;108515;1253;61468;-75
2023/05/16 04:11:00;;;;;;;5.90;3.40;;;;;;;16.15;48.22;99713.34;108202;1253;61451;-76
2023/05/16 04:13:27;;;;;;;5.10;3.70;;;;;;;16.12;48.29;99714.41;107848;1258;75616;-75
2023/05/16 04:15:53;;;;;;;7.30;4.40;;;;;;;16.10;48.23;99716.02;107673;1258;71214;-77
2023/05/16 04:18:21;;;;;;;5.00;4.30;;;;;;;16.11;48.22;99723.20;107014;1253;74960;-74
2023/05/16 04:20:47;;;;;;;5.30;3.60;;;;;;;16.11;48.30;99724.02;107307;1253;61019;-75
2023/05/16 04:23:14;;;;;;;8.20;4.20;;;;;;;16.11;48.26;99734.53;107022;1252;61395;-76
2023/05/16 04:25:42;;;;;;;6.30;3.60;;;;;;;16.09;48.27;99740.72;107739;1252;72649;-78
2023/05/16 04:28:10;;;;;;;7.40;4.50;;;;;;;16.10;48.23;99740.14;108590;1253;68902;-77
2023/05/16 04:30:37;;;;;;;7.00;5.10;;;;;;;16.10;48.39;99741.12;108124;1257;73265;-76
2023/05/16 04:33:04;;;;;;;4.90;3.90;;;;;;;16.10;48.41;99741.38;108193;1254;59623;-74
2023/05/16 04:35:32;;;;;;;6.80;3.90;;;;;;;16.09;48.40;99737.00;108172;1255;61387;-76
2023/05/16 04:37:59;;;;;;;7.00;4.50;;;;;;;16.09;48.52;99735.67;108831;1253;72299;-76
2023/05/16 04:40:26;;;;;;;4.30;3.90;;;;;;;16.10;48.45;99736.09;108767;1253;71050;-76
2023/05/16 04:42:54;;;;;;;5.20;3.80;;;;;;;16.12;47.91;99742.69;108872;1253;72820;-76
2023/05/16 04:45:21;;;;;;;6.80;4.40;;;;;;;16.14;47.97;99737.05;108848;1253;61016;-75
2023/05/16 04:47:48;;;;;;;4.00;3.60;;;;;;;16.18;47.75;99741.02;108127;1258;59726;-75
2023/05/16 04:50:15;;;;;;;7.00;4.00;;;;;;;16.18;47.62;99747.02;108519;1253;74032;-75
2023/05/16 04:52:42;;;;;;;6.60;4.50;;;;;;;16.20;47.36;99746.86;108325;1251;68881;-76
2023/05/16 04:55:10;;;;;;;9.80;4.30;;;;;;;16.20;47.43;99745.34;107487;1253;71572;-75
2023/05/16 04:57:38;;;;;;;4.60;3.60;;;;;;;16.20;46.33;99752.10;107676;1257;61284;-77
2023/05/16 05:00:10;;;;;;;8.30;4.00;;;;;;;16.22;46.43;99744.60;107663;1252;61118;-80
2023/05/16 05:02:37;;;;;;;5.70;4.40;;;;;;;16.25;46.14;99744.35;107661;1253;71054;-78
2023/05/16 05:05:05;;;;;;;11.40;3.80;;;;;;;16.29;45.59;99745.63;108032;1253;71407;-81
2023/05/16 05:07:32;;;;;;;6.80;4.30;;;;;;;16.29;45.33;99751.78;107707;1253;74586;-79
2023/05/16 05:10:04;;;;;;;4.40;3.60;;;;;;;16.27;45.41;99761.69;107916;1253;61201;-79
2023/05/16 05:12:30;;;;;;;7.00;3.40;;;;;;;16.26;45.79;99749.05;108544;1253;61067;-80
2023/05/16 05:14:57;;;;;;;8.60;3.80;;;;;;;16.24;46.04;99741.91;108926;1253;72590;-81
2023/05/16 05:17:24;;;;;;;5.50;3.70;;;;;;;16.23;46.30;99742.86;108322;1251;71804;-79
2023/05/16 05:19:51;;;;;;;5.70;3.30;;;;;;;16.21;46.59;99747.45;108288;1254;72782;-82
2023/05/16 05:22:18;;;;;;;7.10;4.00;;;;;;;16.16;47.23;99751.39;108643;1253;59282;-82
2023/05/16 05:24:45;;;;;;;6.60;4.20;;;;;;;16.10;48.13;99732.55;108901;1253;61206;-81
2023/05/16 05:27:12;;;;;;;11.90;3.90;;;;;;;16.06;47.12;99740.08;108415;1258;73943;-80
2023/05/16 05:29:39;;;;;;;5.30;3.60;;;;;;;16.05;46.10;99733.23;108374;1256;72018;-80
2023/05/16 05:32:07;;;;;;;5.90;3.20;;;;;;;16.07;45.59;99724.42;108492;1253;72536;-81
2023/05/16 05:34:34;;;;;;;4.50;3.20;;;;;;;16.14;45.21;99724.96;108618;1253;59384;-81
2023/05/16 05:37:01;;;;;;;7.90;3.40;;;;;;;16.22;44.83;99726.02;108623;1253;61206;-80
2023/05/16 05:39:28;;;;;;;6.70;3.40;;;;;;;16.29;45.18;99731.91;106342;1253;75008;-79
2023/05/16 05:41:55;;;;;;;8.80;3.70;;;;;;;16.33;45.07;99736.48;107227;1252;71329;-79
2023/05/16 05:44:22;;;;;;;8.20;3.70;;;;;;;16.36;45.57;99737.59;109188;1251;73478;-78
2023/05/16 05:46:50;;;;;;;11.80;3.50;;;;;;;16.36;45.75;99739.83;108971;1253;61290;-74
2023/05/16 05:49:17;;;;;;;6.70;3.60;;;;;;;16.36;46.80;99744.56;109228;1251;61885;-75
2023/05/16 05:51:43;;;;;;;4.90;3.50;;;;;;;16.31;46.69;99760.69;109165;1251;74479;-76
2023/05/16 05:54:10;;;;;;;9.10;4.00;;;;;;;16.22;46.87;99757.46;106372;1253;72282;-74
2023/05/16 05:56:37;;;;;;;12.00;4.50;;;;;;;16.11;47.60;99755.55;105851;1253;74889;-74
2023/05/16 05:59:04;;;;;;;5.80;4.20;;;;;;;16.01;47.93;99761.72;105667;1253;62243;-75
2023/05/16 06:01:31;;;;;;;7.40;4.20;;;;;;;15.93;47.60;99767.88;105829;1253;60403;-74
2023/05/16 06:03:58;;;;;;;6.70;4.30;;;;;;;15.87;47.87;99764.61;105796;1254;74636;-75
2023/05/16 06:06:28;;;;;;;7.80;3.70;;;;;;;15.82;48.14;99771.44;105780;1253;72521;-74
2023/05/16 06:08:55;;;;;;;9.40;4.40;;;;;;;15.80;48.17;99773.29;105806;1253;74935;-73
2023/05/16 06:11:22;;;;;;;9.80;4.00;;;;;;;15.78;48.87;99779.26;105736;1258;61422;-75
2023/05/16 06:13:49;;;;;;;6.70;3.30;;;;;;;15.74;48.52;99771.05;105731;1258;62287;-76
2023/05/16 06:16:16;;;;;;;15.60;9.00;;;;;;;15.68;48.79;99757.73;105790;1253;72107;-77
2023/05/16 06:18:43;;;;;;;4.10;3.50;;;;;;;15.64;48.52;99763.31;105796;1253;72396;-76
2023/05/16 06:21:10;;;;;;;6.10;3.80;;;;;;;15.59;48.01;99765.31;105757;1253;72489;-76
2023/05/16 06:23:37;;;;;;;5.90;3.20;;;;;;;15.56;47.59;99754.88;105799;1258;61290;-76
2023/05/16 06:26:04;;;;;;;5.70;3.60;;;;;;;15.54;47.79;99747.48;105912;1253;62303;-77
2023/05/16 06:28:31;;;;;;;6.20;3.30;;;;;;;15.56;47.75;99744.55;105898;1253;75874;-74
2023/05/16 06:30:57;;;;;;;4.40;4.00;;;;;;;15.57;48.04;99736.17;105737;1252;72255;-76
2023/05/16 06:33:24;;;;;;;4.20;3.40;;;;;;;15.60;48.28;99735.54;105815;1253;74917;-76
2023/05/16 06:35:51;;;;;;;7.10;4.00;;;;;;;15.64;48.09;99732.33;105840;1256;62381;-76
2023/05/16 06:38:18;;;;;;;6.10;4.00;;;;;;;15.68;47.61;99728.64;105845;1259;62296;-74
2023/05/16 06:40:45;;;;;;;6.60;4.10;;;;;;;15.72;47.05;99730.77;105940;1252;72578;-75
2023/05/16 06:43:12;;;;;;;5.70;3.40;;;;;;;15.76;46.90;99734.02;105770;1258;70121;-76
2023/05/16 06:45:40;;;;;;;4.20;3.30;;;;;;;15.80;46.70;99729.64;105853;1259;76318;-75
2023/05/16 06:48:07;;;;;;;6.30;3.40;;;;;;;15.81;46.73;99727.79;105765;1252;62245;-77
2023/05/16 06:50:34;;;;;;;4.40;3.60;;;;;;;15.89;46.80;99729.13;105995;1251;61316;-77
2023/05/16 06:53:03;;;;;;;5.00;3.90;;;;;;;15.94;46.23;99730.66;105945;1253;72465;-76
2023/05/16 06:55:30;;;;;;;6.60;3.90;;;;;;;15.99;46.09;99726.80;106364;1253;71291;-75
2023/05/16 06:57:57;;;;;;;5.40;3.30;;;;;;;16.03;45.42;99728.70;105973;1253;74838;-75
2023/05/16 07:00:24;;;;;;;4.80;3.30;;;;;;;16.06;45.55;99723.43;105838;1257;61233;-74
2023/05/16 07:02:52;;;;;;;6.00;3.70;;;;;;;16.11;45.34;99714.61;105962;1258;61484;-77
2023/05/16 07:05:19;;;;;;;10.60;4.20;;;;;;;16.17;45.28;99719.11;105958;1253;75898;-79
2023/05/16 07:07:46;;;;;;;6.30;3.40;;;;;;;16.25;44.64;99713.66;106008;1258;71224;-77
2023/05/16 07:10:14;;;;;;;4.60;3.20;;;;;;;16.33;44.43;99714.54;105985;1256;74811;-78
2023/05/16 07:12:42;;;;;;;5.40;3.70;;;;;;;16.42;44.49;99714.01;105919;1256;62256;-77
2023/05/16 07:15:09;;;;;;;7.20;3.90;;;;;;;16.53;44.45;99719.31;106030;1253;61271;-75
2023/05/16 07:17:36;;;;;;;8.60;3.70;;;;;;;16.63;44.35;99724.75;106022;1252;74896;-77
2023/05/16 07:20:05;;;;;;;5.50;3.70;;;;;;;16.68;44.57;99732.83;105891;1258;70447;-75
2023/05/16 07:22:32;;;;;;;4.80;3.50;;;;;;;16.70;44.85;99730.02;106133;1253;75350;-73
2023/05/16 07:25:03;;;;;;;6.60;4.00;;;;;;;16.73;45.15;99736.83;106039;1251;60398;-76
2023/05/16 07:27:30;;;;;;;5.20;3.80;;;;;;;16.75;45.48;99742.27;106115;1258;61654;-79
2023/05/16 07:29:57;;;;;;;5.40;3.80;;;;;;;16.74;45.47;99740.34;106038;1258;75990;-75
2023/05/16 07:32:24;;;;;;;5.90;3.20;;;;;;;16.69;45.79;99736.96;106260;1253;71320;-76
2023/05/16 07:34:51;;;;;;;5.80;3.60;;;;;;;16.68;45.96;99748.44;106117;1251;73804;-78
2023/05/16 07:37:19;;;;;;;7.90;3.70;;;;;;;16.64;46.08;99748.89;105917;1257;63708;-77
2023/05/16 07:39:46;;;;;;;8.50;4.30;;;;;;;16.64;46.18;99746.98;106037;1251;60439;-75
2023/05/16 07:42:13;;;;;;;5.80;3.40;;;;;;;16.64;46.29;99752.15;106026;1259;76042;-78
2023/05/16 07:44:40;;;;;;;7.70;3.60;;;;;;;16.67;46.33;99751.61;106025;1259;69261;-77
2023/05/16 07:47:07;;;;;;;5.60;3.90;;;;;;;16.68;46.02;99748.20;105833;1258;71328;-76
2023/05/16 07:49:34;;;;;;;5.40;4.00;;;;;;;16.68;46.16;99750.09;105937;1253;62337;-75
2023/05/16 07:52:01;;;;;;;5.90;4.20;;;;;;;16.65;46.22;99747.16;106040;1254;61149;-76
2023/05/16 07:54:28;;;;;;;5.40;3.60;;;;;;;16.65;46.44;99754.50;105882;1253;73856;-77
2023/05/16 07:56:55;;;;;;;10.50;4.30;;;;;;;16.66;46.56;99756.03;105987;1253;70174;-77
2023/05/16 07:59:22;;;;;;;8.60;4.40;;;;;;;16.68;46.76;99757.81;105865;1258;74682;-76
2023/05/16 08:01:49;;;;;;;7.80;4.20;;;;;;;16.70;46.79;99770.67;105854;1253;62372;-75
2023/05/16 08:04:17;;;;;;;7.70;4.20;;;;;;;16.68;47.04;99771.58;106008;1258;62603;-76
2023/05/16 08:06:44;;;;;;;5.90;4.30;;;;;;;16.65;47.40;99768.77;105974;1253;74469;-77
2023/05/16 08:09:11;;;;;;;10.90;4.90;;;;;;;16.62;47.68;99773.15;106217;1253;72539;-77
2023/05/16 08:11:38;;;;;;;6.40;4.50;;;;;;;16.60;47.95;99780.96;107490;1253;73547;-76
2023/05/16 08:14:05;;;;;;;14.10;4.70;;;;;;;16.60;48.34;99784.00;106901;1253;61502;-76
2023/05/16 08:16:32;;;;;;;9.40;4.60;;;;;;;16.59;48.75;99778.81;105828;1260;63278;-76
2023/05/16 08:18:59;;;;;;;5.60;3.90;;;;;;;16.59;49.55;99782.73;105947;1259;76034;-75
2023/05/16 08:21:26;;;;;;;6.10;4.40;;;;;;;16.59;49.86;99781.57;105799;1253;70386;-78
2023/05/16 08:23:53;;;;;;;6.90;4.50;;;;;;;16.62;49.74;99780.50;105762;1254;74990;-76
2023/05/16 08:26:20;;;;;;;8.40;4.80;;;;;;;16.65;49.83;99784.00;105689;1253;61680;-76
2023/05/16 08:28:47;;;;;;;6.80;4.30;;;;;;;16.68;50.04;99780.05;105896;1258;60809;-76
2023/05/16 08:31:15;;;;;;;8.70;4.20;;;;;;;16.69;51.00;99784.34;105739;1253;75157;-76
2023/05/16 08:33:42;;;;;;;7.10;5.40;;;;;;;16.70;51.83;99780.33;105802;1261;71846;-77
2023/05/16 08:36:09;;;;;;;6.60;3.90;;;;;;;16.67;52.61;99785.86;105768;1259;74674;-77
2023/05/16 08:38:36;;;;;;;5.30;3.90;;;;;;;16.61;52.88;99784.71;105868;1256;60813;-77
2023/05/16 08:41:03;;;;;;;7.50;4.40;;;;;;;16.54;53.39;99779.30;105805;1253;62148;-75
2023/05/16 08:43:30;;;;;;;5.30;4.40;;;;;;;16.48;53.64;99773.56;105946;1257;74434;-76
2023/05/16 08:45:58;;;;;;;5.10;4.60;;;;;;;16.47;54.51;99776.61;105963;1258;71452;-78
2023/05/16 08:48:25;;;;;;;6.20;4.40;;;;;;;16.46;55.13;99774.88;105923;1256;74727;-77
2023/05/16 08:50:52;;;;;;;7.40;5.20;;;;;;;16.43;55.76;99770.69;106001;1257;60414;-78
2023/05/16 08:53:26;;;;;;;8.90;4.80;;;;;;;16.41;56.26;99761.44;105754;1254;62474;-77
2023/05/16 08:55:53;;;;;;;7.20;5.00;;;;;;;16.39;56.88;99758.42;105999;1260;74698;-77
2023/05/16 08:58:20;;;;;;;8.00;5.30;;;;;;;16.43;56.80;99758.93;105657;1253;71212;-77
2023/05/16 09:00:47;;;;;;;14.20;7.60;;;;;;;16.51;56.93;99750.88;105700;1256;74865;-77
2023/05/16 09:03:14;;;;;;;7.90;5.30;;;;;;;16.61;56.47;99754.83;105814;1253;62162;-76
2023/05/16 09:05:41;;;;;;;9.10;4.70;;;;;;;16.74;55.81;99751.57;105866;1253;60454;-76
2023/05/16 09:08:08;;;;;;;7.40;5.20;;;;;;;16.91;55.00;99751.11;105847;1254;72785;-76
2023/05/16 09:10:35;;;;;;;7.40;4.90;;;;;;;17.07;53.93;99749.76;105877;1253;72533;-78
2023/05/16 09:13:03;;;;;;;7.50;6.00;;;;;;;17.26;53.53;99748.79;106113;1253;74684;-77
2023/05/16 09:15:31;;;;;;;9.00;5.50;;;;;;;17.42;52.97;99747.58;106007;1253;61020;-75
2023/05/16 09:18:01;;;;;;;10.40;6.50;;;;;;;17.59;52.16;99757.77;106055;1253;61214;-74
2023/05/16 09:20:29;;;;;;;8.20;5.90;;;;;;;17.73;51.35;99760.71;106074;1258;75652;-74
2023/05/16 09:22:58;;;;;;;8.30;5.90;;;;;;;17.84;50.94;99769.05;105997;1258;69932;-75
2023/05/16 09:25:27;;;;;;;10.10;6.20;;;;;;;17.95;50.68;99767.16;105998;1257;73378;-75
2023/05/16 09:27:58;;;;;;;7.40;5.70;;;;;;;18.11;50.38;99761.02;106067;1259;60588;-76
2023/05/16 09:30:33;;;;;;;8.10;5.40;;;;;;;18.26;50.10;99757.49;105999;1257;60897;-75
2023/05/16 09:33:00;;;;;;;7.40;5.40;;;;;;;18.39;49.67;99761.48;106087;1253;76347;-76
2023/05/16 09:35:28;;;;;;;8.00;5.40;;;;;;;18.44;49.56;99757.35;105737;1261;71523;-78
2023/05/16 09:37:57;;;;;;;6.80;5.00;;;;;;;18.51;49.60;99763.33;105840;1259;72622;-78
2023/05/16 09:40:24;;;;;;;5.40;4.90;;;;;;;18.62;49.54;99767.59;106166;1259;60433;-77
2023/05/16 09:43:05;;;;;;;6.40;5.50;;;;;;;18.65;49.29;99774.15;106243;1255;62814;-78
2023/05/16 09:45:33;;;;;;;8.30;5.20;;;;;;;18.62;49.35;99767.98;106260;1253;74833;-79
2023/05/16 09:48:04;;;;;;;6.60;5.20;;;;;;;18.69;49.47;99763.09;106021;1259;69007;-77
2023/05/16 09:50:33;;;;;;;12.60;5.00;;;;;;;18.85;49.39;99763.05;105943;1256;73074;-77
2023/05/16 09:53:01;;;;;;;7.00;5.00;;;;;;;18.99;49.18;99763.34;106151;1254;61249;-79
2023/05/16 09:55:28;;;;;;;7.30;5.00;;;;;;;19.09;49.06;99766.52;106016;1253;61513;-78
2023/05/16 09:57:55;;;;;;;7.10;4.80;;;;;;;19.16;48.96;99774.43;105998;1253;75870;-78
2023/05/16 10:00:22;;;;;;;7.00;5.10;;;;;;;19.13;49.05;99759.83;105849;1257;72375;-76
2023/05/16 10:02:49;;;;;;;8.50;5.00;;;;;;;19.11;49.28;99769.34;105953;1253;73645;-77
2023/05/16 10:05:16;;;;;;;6.60;4.90;;;;;;;19.01;49.39;99763.78;105785;1254;60925;-77
2023/05/16 10:07:43;;;;;;;7.20;4.80;;;;;;;18.88;49.54;99757.41;105792;1254;61220;-78
2023/05/16 10:10:10;;;;;;;5.60;4.70;;;;;;;18.79;49.69;99759.62;106031;1253;72699;-75
2023/05/16 10:12:37;;;;;;;12.10;5.20;;;;;;;18.77;49.80;99764.35;105822;1253;72207;-76
2023/05/16 10:15:04;;;;;;;5.90;4.60;;;;;;;18.76;49.94;99767.99;105911;1257;72657;-77
2023/05/16 10:17:33;;;;;;;6.10;4.50;;;;;;;18.72;48.38;99765.27;105841;1254;61839;-79
2023/05/16 10:20:04;;;;;;;6.30;4.50;;;;;;;18.66;46.55;99774.29;105863;1258;60344;-76
2023/05/16 10:22:34;;;;;;;6.10;5.00;;;;;;;18.62;45.58;99771.68;105981;1259;73966;-78
2023/05/16 10:25:33;;;;;;;10.80;5.10;;;;;;;18.57;45.52;99760.05;106181;1253;70426;-73
2023/05/16 10:28:00;;;;;;;5.30;4.00;;;;;;;18.50;46.58;99774.96;106397;1256;74095;-78
2023/05/16 10:30:27;;;;;;;7.10;4.30;;;;;;;18.39;47.40;99787.14;106136;1254;60864;-77
2023/05/16 10:32:55;;;;;;;10.00;4.20;;;;;;;18.21;47.37;99775.17;107677;1253;62387;-76
2023/05/16 10:35:23;;;;;;;6.20;4.30;;;;;;;18.02;47.40;99764.27;108628;1251;73649;-75
2023/05/16 10:37:50;;;;;;;25.80;4.60;;;;;;;17.92;47.68;99781.27;108764;1256;71745;-78
2023/05/16 10:40:17;;;;;;;6.60;3.70;;;;;;;17.83;47.81;99772.54;108765;1254;71396;-77
2023/05/16 10:42:55;;;;;;;7.40;4.30;;;;;;;17.75;48.08;99766.79;107858;1254;61435;-76
2023/05/16 10:45:24;;;;;;;8.80;4.70;;;;;;;17.67;48.30;99767.14;106365;1256;61016;-76
2023/05/16 10:47:54;;;;;;;7.70;4.70;;;;;;;17.56;48.63;99763.52;105907;1254;73767;-75
2023/05/16 10:50:35;;;;;;;7.90;4.00;;;;;;;17.42;48.38;99760.52;106061;1259;71578;-77
2023/05/16 10:53:18;;;;;;;7.80;4.30;;;;;;;17.34;48.11;99761.54;105951;1254;74106;-77
2023/05/16 10:56:03;;;;;;;5.00;3.80;;;;;;;17.29;48.01;99782.79;105843;1260;61264;-79
2023/05/16 10:58:30;;;;;;;7.40;4.70;;;;;;;17.25;48.00;99755.48;105832;1254;62390;-76
2023/05/16 11:01:16;;;;;;;7.60;4.20;;;;;;;17.27;48.15;99765.13;105826;1259;75958;-76
2023/05/16 11:03:58;;;;;;;12.10;4.70;;;;;;;17.28;48.16;99763.16;105880;1261;72345;-76
2023/05/16 11:06:33;;;;;;;8.00;3.70;;;;;;;17.33;48.21;99754.52;105805;1253;74672;-77
2023/05/16 11:09:10;;;;;;;8.00;6.70;;;;;;;17.38;48.30;99756.23;105807;1260;61345;-76
2023/05/16 11:12:02;;;;;;;5.60;4.20;;;;;;;17.48;48.20;99753.92;105808;1259;62641;-78
2023/05/16 11:14:32;;;;;;;9.00;4.70;;;;;;;17.63;48.16;99758.08;105863;1259;74694;-77
2023/05/16 11:17:15;;;;;;;7.10;4.40;;;;;;;17.74;48.01;99755.25;105849;1260;70368;-77
2023/05/16 11:19:47;;;;;;;9.40;4.40;;;;;;;17.84;47.94;99761.73;105976;1255;73155;-76
2023/05/16 11:22:22;;;;;;;5.90;4.70;;;;;;;17.91;47.70;99761.59;105916;1259;62234;-77
2023/05/16 11:25:00;;;;;;;7.60;4.50;;;;;;;17.94;47.45;99747.20;105978;1266;60492;-78
2023/05/16 11:27:46;;;;;;;7.30;4.40;;;;;;;17.98;47.49;99749.19;105791;1258;75957;-77
2023/05/16 11:30:15;;;;;;;6.40;4.30;;;;;;;18.02;47.50;99747.43;105784;1258;71944;-75
2023/05/16 11:32:44;;;;;;;8.20;4.80;;;;;;;18.04;47.51;99749.98;105883;1254;72673;-76